createdAt,value
2022-11-21T00:01:18.757Z,16.83
2022-11-21T00:03:46.953Z,17.77
2022-11-21T00:06:15.276Z,16.98
2022-11-21T00:08:46.236Z,16.25
2022-11-21T00:11:14.331Z,19.10
2022-11-21T00:13:43.057Z,18.17
2022-11-21T00:16:13.345Z,18.27
2022-11-21T00:18:42.118Z,18.85
2022-11-21T00:21:12.933Z,17.00
2022-11-21T00:23:40.973Z,17.35
2022-11-21T00:26:12.141Z,17.63
2022-11-21T00:28:40.343Z,18.77
2022-11-21T00:31:08.882Z,17.30
2022-11-21T00:33:38.925Z,15.70
2022-11-21T00:36:08.762Z,17.23
2022-11-21T00:38:36.719Z,16.83
2022-11-21T00:41:04.673Z,17.65
2022-11-21T00:43:34.013Z,16.92
2022-11-21T00:46:03.106Z,18.80
2022-11-21T00:48:32.404Z,18.27
2022-11-21T00:51:01.484Z,16.30
2022-11-21T00:53:30.205Z,17.80
2022-11-21T00:55:58.685Z,15.80
2022-11-21T00:58:26.913Z,17.23
2022-11-21T01:01:04.382Z,17.60
2022-11-21T01:03:33.900Z,16.33
2022-11-21T01:06:06.970Z,17.02
2022-11-21T01:08:37.324Z,15.73
2022-11-21T01:11:05.648Z,16.42
2022-11-21T01:13:34.294Z,15.38
2022-11-21T01:16:07.921Z,16.02
2022-11-21T01:18:36.467Z,14.60
2022-11-21T01:21:05.953Z,16.30
2022-11-21T01:23:33.954Z,14.80
2022-11-21T01:26:06.176Z,16.05
2022-11-21T01:28:34.335Z,15.20
2022-11-21T01:31:08.542Z,16.90
2022-11-21T01:33:37.445Z,14.73
2022-11-21T01:36:13.151Z,17.35
2022-11-21T01:38:42.335Z,15.90
2022-11-21T01:41:10.894Z,15.15
2022-11-21T01:43:38.919Z,15.55
2022-11-21T01:46:13.506Z,15.82
2022-11-21T01:48:46.188Z,16.48
2022-11-21T01:51:20.393Z,16.55
2022-11-21T01:53:54.087Z,15.60
2022-11-21T01:56:22.997Z,16.95
2022-11-21T01:58:53.641Z,17.38
2022-11-21T02:01:23.160Z,18.60
2022-11-21T02:03:54.041Z,15.30
2022-11-21T02:06:22.253Z,15.63
2022-11-21T02:08:50.595Z,16.10
2022-11-21T02:11:27.455Z,17.02
2022-11-21T02:13:56.520Z,16.95
2022-11-21T02:16:27.176Z,15.80
2022-11-21T02:18:55.532Z,16.40
2022-11-21T02:21:33.744Z,15.77
2022-11-21T02:24:05.939Z,16.48
2022-11-21T02:26:35.807Z,17.75
2022-11-21T02:29:03.706Z,16.23
2022-11-21T02:31:31.633Z,16.88
2022-11-21T02:33:59.504Z,16.75
2022-11-21T02:36:42.200Z,18.10
2022-11-21T02:39:14.526Z,16.77
2022-11-21T02:41:49.740Z,17.60
2022-11-21T02:46:50.900Z,17.10
2022-11-21T02:49:25.578Z,17.55
2022-11-21T02:51:53.497Z,18.33
2022-11-21T02:54:21.415Z,18.13
2022-11-21T02:56:50.722Z,17.70
2022-11-21T02:59:18.635Z,18.73
2022-11-21T03:01:46.616Z,17.83
2022-11-21T03:04:14.529Z,16.95
2022-11-21T03:06:42.449Z,17.77
2022-11-21T03:09:10.287Z,16.70
2022-11-21T03:11:38.198Z,17.33
2022-11-21T03:14:07.498Z,16.48
2022-11-21T03:16:35.439Z,15.50
2022-11-21T03:19:03.513Z,15.38
2022-11-21T03:21:31.429Z,16.23
2022-11-21T03:23:59.298Z,15.88
2022-11-21T03:26:27.224Z,15.18
2022-11-21T03:28:55.139Z,16.05
2022-11-21T03:31:24.387Z,14.95
2022-11-21T03:33:52.267Z,16.02
2022-11-21T03:36:20.125Z,16.63
2022-11-21T03:38:48.022Z,17.52
2022-11-21T03:41:30.794Z,17.58
2022-11-21T03:48:07.571Z,17.48
2022-11-21T03:50:35.449Z,17.98
2022-11-21T03:53:03.385Z,16.63
2022-11-21T03:55:31.260Z,17.13
2022-11-21T03:57:59.116Z,17.65
2022-11-21T04:00:27.051Z,18.15
2022-11-21T04:02:54.989Z,18.27
2022-11-21T04:05:24.259Z,18.58
2022-11-21T04:07:53.905Z,16.67
2022-11-21T04:10:21.970Z,18.00
2022-11-21T04:12:49.834Z,17.33
2022-11-21T04:15:17.881Z,19.45
2022-11-21T04:17:45.812Z,17.23
2022-11-21T04:20:13.716Z,15.98
2022-11-21T04:22:43.910Z,16.83
2022-11-21T04:25:13.678Z,17.83
2022-11-21T04:27:41.570Z,16.08
2022-11-21T04:30:10.463Z,17.30
2022-11-21T04:32:38.368Z,16.00
2022-11-21T04:35:07.266Z,16.85
2022-11-21T04:37:35.386Z,15.40
2022-11-21T04:40:05.294Z,12.73
2022-11-21T04:42:33.158Z,14.70
2022-11-21T04:45:01.069Z,12.05
2022-11-21T04:47:28.995Z,11.50
2022-11-21T04:49:56.898Z,11.98
2022-11-21T04:52:24.835Z,11.07
2022-11-21T04:54:52.940Z,10.43
2022-11-21T04:57:22.320Z,10.10
2022-11-21T04:59:50.347Z,9.93
2022-11-21T05:02:18.257Z,9.38
2022-11-21T05:04:46.142Z,7.93
2022-11-21T05:07:14.184Z,8.13
2022-11-21T05:09:42.223Z,8.65
2022-11-21T05:12:28.525Z,8.32
2022-11-21T05:14:58.063Z,7.60
2022-11-21T05:17:26.000Z,6.63
2022-11-21T05:19:53.881Z,6.32
2022-11-21T05:22:21.947Z,7.20
2022-11-21T05:24:49.884Z,5.95
2022-11-21T05:27:17.886Z,5.63
2022-11-21T05:29:46.019Z,6.70
2022-11-21T05:32:15.401Z,6.88
2022-11-21T05:34:43.396Z,5.55
2022-11-21T05:37:11.385Z,4.95
2022-11-21T05:39:39.408Z,5.13
2022-11-21T05:42:07.355Z,4.15
2022-11-21T05:44:34.284Z,4.90
2022-11-21T05:47:02.622Z,4.70
2022-11-21T05:49:31.952Z,5.00
2022-11-21T05:51:59.885Z,4.78
2022-11-21T05:54:28.191Z,5.97
2022-11-21T05:56:56.297Z,5.25
2022-11-21T05:59:24.172Z,4.32
2022-11-21T06:02:14.728Z,5.57
2022-11-21T06:04:44.090Z,5.22
2022-11-21T06:07:12.040Z,5.43
2022-11-21T06:09:39.971Z,5.32
2022-11-21T06:12:08.105Z,5.15
2022-11-21T06:14:36.324Z,5.65
2022-11-21T06:17:04.377Z,5.65
2022-11-21T06:19:32.345Z,5.35
2022-11-21T06:22:01.605Z,5.07
2022-11-21T06:24:29.693Z,4.97
2022-11-21T06:26:58.661Z,5.38
2022-11-21T06:29:26.721Z,4.15
2022-11-21T06:31:55.953Z,4.85
2022-11-21T06:34:24.013Z,4.97
2022-11-21T06:36:52.011Z,4.50
2022-11-21T06:39:21.923Z,5.38
2022-11-21T06:41:51.320Z,5.55
2022-11-21T06:44:19.513Z,5.72
2022-11-21T06:46:51.208Z,5.72
2022-11-21T06:49:19.608Z,4.93
2022-11-21T06:51:47.647Z,5.88
2022-11-21T06:54:17.089Z,6.30
2022-11-21T06:56:46.827Z,26.02
2022-11-21T06:59:14.730Z,6.18
2022-11-21T07:01:42.744Z,14.82
2022-11-21T07:04:10.746Z,9.27
2022-11-21T07:06:38.674Z,10.35
2022-11-21T07:11:56.004Z,8.13
2022-11-21T07:14:22.971Z,9.00
2022-11-21T07:16:50.953Z,19.50
2022-11-21T07:19:18.983Z,10.93
2022-11-21T07:21:47.050Z,8.82
2022-11-21T07:24:15.031Z,9.45
2022-11-21T07:26:43.135Z,9.20
2022-11-21T07:29:12.371Z,9.23
2022-11-21T07:31:40.467Z,10.27
2022-11-21T07:34:08.413Z,10.52
2022-11-21T07:36:36.530Z,10.15
2022-11-21T07:39:04.702Z,9.90
2022-11-21T07:41:32.694Z,9.30
2022-11-21T07:44:00.681Z,10.30
2022-11-21T07:46:30.023Z,10.05
2022-11-21T07:49:02.914Z,9.60
2022-11-21T07:51:31.598Z,11.25
2022-11-21T07:53:59.555Z,11.02
2022-11-21T07:56:27.563Z,10.02
2022-11-21T07:58:55.488Z,9.68
2022-11-21T08:01:23.518Z,11.02
2022-11-21T08:03:52.963Z,9.18
2022-11-21T08:06:20.932Z,10.27
2022-11-21T08:08:51.490Z,10.43
2022-11-21T08:11:19.435Z,10.25
2022-11-21T08:13:47.554Z,10.98
2022-11-21T08:16:15.479Z,10.98
2022-11-21T08:18:43.442Z,10.93
2022-11-21T08:21:15.765Z,10.88
2022-11-21T08:23:49.878Z,16.45
2022-11-21T08:26:18.605Z,13.65
2022-11-21T08:28:46.619Z,14.38
2022-11-21T08:31:14.642Z,12.07
2022-11-21T08:33:42.714Z,12.30
2022-11-21T08:36:12.608Z,11.18
2022-11-21T08:38:40.620Z,12.20
2022-11-21T08:41:26.157Z,11.73
2022-11-21T08:46:21.985Z,10.70
2022-11-21T08:48:50.031Z,10.55
2022-11-21T08:51:19.412Z,10.95
2022-11-21T08:53:47.348Z,11.48
2022-11-21T08:56:15.348Z,11.80
2022-11-21T08:58:43.291Z,12.23
2022-11-21T09:01:11.261Z,11.40
2022-11-21T09:03:41.389Z,12.57
2022-11-21T09:06:09.472Z,12.05
2022-11-21T09:08:38.798Z,12.05
2022-11-21T09:11:07.761Z,11.23
2022-11-21T09:13:36.469Z,11.95
2022-11-21T09:16:22.571Z,12.45
2022-11-21T09:18:53.602Z,11.38
2022-11-21T09:21:22.186Z,13.02
2022-11-21T09:23:51.400Z,13.23
2022-11-21T09:26:19.425Z,11.65
2022-11-21T09:28:47.372Z,11.77
2022-11-21T09:31:15.284Z,13.93
2022-11-21T09:33:43.159Z,12.02
2022-11-21T09:36:11.736Z,12.18
2022-11-21T09:38:40.856Z,12.30
2022-11-21T09:41:42.281Z,13.82
2022-11-21T09:44:17.277Z,13.23
2022-11-21T09:46:49.105Z,16.08
2022-11-21T09:49:18.469Z,14.45
2022-11-21T09:51:46.989Z,13.95
2022-11-21T09:54:20.314Z,13.95
2022-11-21T09:56:50.244Z,14.43
2022-11-21T09:59:33.292Z,14.90
2022-11-21T10:02:01.283Z,14.20
2022-11-21T10:04:29.467Z,12.75
2022-11-21T10:07:03.026Z,14.15
2022-11-21T10:09:45.068Z,14.00
2022-11-21T10:12:38.681Z,13.88
2022-11-21T10:15:19.957Z,13.73
2022-11-21T10:17:59.411Z,12.95
2022-11-21T10:20:37.624Z,14.68
2022-11-21T10:23:22.659Z,13.93
2022-11-21T10:25:57.174Z,13.65
2022-11-21T10:28:38.908Z,15.45
2022-11-21T10:31:11.293Z,17.38
2022-11-21T10:33:40.472Z,14.80
2022-11-21T10:36:14.825Z,15.05
2022-11-21T10:38:45.486Z,13.27
2022-11-21T10:41:18.808Z,13.35
2022-11-21T10:44:12.679Z,12.95
2022-11-21T10:46:40.648Z,11.77
2022-11-21T10:49:15.310Z,13.68
2022-11-21T10:51:49.182Z,11.15
2022-11-21T10:54:36.419Z,11.68
2022-11-21T10:57:12.683Z,13.45
2022-11-21T10:59:42.085Z,13.73
2022-11-21T11:02:25.477Z,14.65
2022-11-21T11:05:19.688Z,14.63
2022-11-21T11:08:02.367Z,15.13
2022-11-21T11:10:30.703Z,13.90
2022-11-21T11:13:44.616Z,13.85
2022-11-21T11:18:38.575Z,12.13
2022-11-21T11:21:16.658Z,12.73
2022-11-21T11:23:44.859Z,11.27
2022-11-21T11:26:23.043Z,12.35
2022-11-21T11:28:51.056Z,12.80
2022-11-21T11:31:20.437Z,12.60
2022-11-21T11:33:54.295Z,13.75
2022-11-21T11:36:37.167Z,13.90
2022-11-21T11:39:18.891Z,13.55
2022-11-21T11:42:26.266Z,14.23
2022-11-21T11:45:24.165Z,15.48
2022-11-21T11:47:56.446Z,15.38
2022-11-21T11:50:31.791Z,17.20
2022-11-21T11:53:05.579Z,15.63
2022-11-21T11:55:38.444Z,16.05
2022-11-21T11:58:14.330Z,15.52
2022-11-21T12:00:46.821Z,14.23
2022-11-21T12:03:20.461Z,14.63
2022-11-21T12:06:09.429Z,15.82
2022-11-21T12:08:45.473Z,14.52
2022-11-21T12:11:39.675Z,14.95
2022-11-21T12:14:39.390Z,13.23
2022-11-21T12:17:11.276Z,13.43
2022-11-21T12:19:41.136Z,13.43
2022-11-21T12:22:11.839Z,13.73
2022-11-21T12:24:43.129Z,15.65
2022-11-21T12:27:24.919Z,16.23
2022-11-21T12:30:08.072Z,16.13
2022-11-21T12:32:52.820Z,16.02
2022-11-21T12:35:37.021Z,16.73
2022-11-21T12:38:17.121Z,16.48
2022-11-21T12:40:55.513Z,17.50
2022-11-21T12:43:34.312Z,16.60
2022-11-21T12:46:11.598Z,15.25
2022-11-21T12:49:10.759Z,14.52
2022-11-21T12:52:28.081Z,17.58
2022-11-21T12:55:19.087Z,16.15
2022-11-21T12:58:02.629Z,14.30
2022-11-21T13:00:39.707Z,13.95
2022-11-21T13:03:45.358Z,12.60
2022-11-21T13:06:17.745Z,12.75
2022-11-21T13:08:49.382Z,14.43
2022-11-21T13:11:46.267Z,12.82
2022-11-21T13:14:20.451Z,11.65
2022-11-21T13:16:55.806Z,13.05
2022-11-21T13:19:29.174Z,12.20
2022-11-21T13:21:57.360Z,10.32
2022-11-21T13:24:59.135Z,12.80
2022-11-21T13:27:38.773Z,9.75
2022-11-21T13:30:23.337Z,10.93
2022-11-21T13:32:52.565Z,11.18
2022-11-21T13:36:06.744Z,12.45
2022-11-21T13:39:32.403Z,11.10
2022-11-21T13:42:27.542Z,11.35
2022-11-21T13:44:56.115Z,12.30
2022-11-21T13:48:01.939Z,11.40
2022-11-21T13:51:04.068Z,12.98
2022-11-21T13:54:09.215Z,11.70
2022-11-21T13:56:42.601Z,13.10
2022-11-21T13:59:31.252Z,13.25
2022-11-21T14:02:29.643Z,12.20
2022-11-21T14:05:13.416Z,12.65
2022-11-21T14:07:43.129Z,14.50
2022-11-21T14:10:30.937Z,11.80
2022-11-21T14:12:59.731Z,13.15
2022-11-21T14:15:36.171Z,12.73
2022-11-21T14:18:04.927Z,13.70
2022-11-21T14:20:47.511Z,13.35
2022-11-21T14:23:18.567Z,13.55
2022-11-21T14:25:50.169Z,13.15
2022-11-21T14:28:25.196Z,15.25
2022-11-21T14:30:59.586Z,18.65
2022-11-21T14:33:30.143Z,16.60
2022-11-21T14:36:02.335Z,13.77
2022-11-21T14:38:32.106Z,12.32
2022-11-21T14:41:29.515Z,14.10
2022-11-21T14:44:06.953Z,15.30
2022-11-21T14:46:37.899Z,14.88
2022-11-21T14:49:25.516Z,14.98
2022-11-21T14:51:59.768Z,14.05
2022-11-21T14:54:31.261Z,14.77
2022-11-21T14:57:01.231Z,13.60
2022-11-21T14:59:32.357Z,14.48
2022-11-21T15:02:03.934Z,14.80
2022-11-21T15:04:34.193Z,15.02
2022-11-21T15:07:02.676Z,16.48
2022-11-21T15:10:26.551Z,17.08
2022-11-21T15:12:26.854Z,15.05
2022-11-21T15:14:59.765Z,13.65
2022-11-21T15:17:29.994Z,15.57
2022-11-21T15:20:19.980Z,15.50
2022-11-21T15:22:58.360Z,17.60
2022-11-21T15:25:41.673Z,18.60
2022-11-21T15:28:15.768Z,18.13
2022-11-21T15:30:45.973Z,20.95
2022-11-21T15:33:19.486Z,18.13
2022-11-21T15:35:50.391Z,15.98
2022-11-21T15:38:27.456Z,19.02
2022-11-21T15:41:04.308Z,21.02
2022-11-21T15:43:40.742Z,20.40
2022-11-21T15:46:17.644Z,18.23
2022-11-21T15:48:51.800Z,19.13
2022-11-21T15:51:37.812Z,18.50
2022-11-21T15:54:13.078Z,19.27
2022-11-21T15:56:41.389Z,17.75
2022-11-21T15:59:09.681Z,18.40
2022-11-21T16:01:38.041Z,17.27
2022-11-21T16:04:09.381Z,17.23
2022-11-21T16:06:39.551Z,17.00
2022-11-21T16:09:07.483Z,18.02
2022-11-21T16:11:38.113Z,18.80
2022-11-21T16:14:07.617Z,18.35
2022-11-21T16:16:42.999Z,18.90
2022-11-21T16:19:13.838Z,18.08
2022-11-21T16:21:42.139Z,20.00
2022-11-21T16:24:10.337Z,19.45
2022-11-21T16:26:38.554Z,18.23
2022-11-21T16:29:06.564Z,19.85
2022-11-21T16:31:34.960Z,18.67
2022-11-21T16:34:03.181Z,18.30
2022-11-21T16:36:33.804Z,17.88
2022-11-21T16:39:08.802Z,19.08
2022-11-21T16:41:41.006Z,19.75
2022-11-21T16:44:13.492Z,20.92
2022-11-21T16:46:43.910Z,24.20
2022-11-21T16:49:12.144Z,39.53
2022-11-21T16:51:41.433Z,26.80
2022-11-21T16:54:09.746Z,22.70
2022-11-21T16:56:38.143Z,22.02
2022-11-21T16:59:06.076Z,24.90
2022-11-21T17:01:34.138Z,24.02
2022-11-21T17:04:02.111Z,24.50
2022-11-21T17:06:31.842Z,21.17
2022-11-21T17:09:02.320Z,29.15
2022-11-21T17:11:32.034Z,26.60
2022-11-21T17:14:03.072Z,18.92
2022-11-21T17:16:32.055Z,18.08
2022-11-21T17:19:01.741Z,16.90
2022-11-21T17:21:30.702Z,15.20
2022-11-21T17:23:58.640Z,16.33
2022-11-21T17:26:29.768Z,17.38
2022-11-21T17:28:59.081Z,18.05
2022-11-21T17:31:28.004Z,17.60
2022-11-21T17:33:57.664Z,16.38
2022-11-21T17:36:27.268Z,16.95
2022-11-21T17:38:56.013Z,16.90
2022-11-21T17:41:25.245Z,19.33
2022-11-21T17:43:57.850Z,18.48
2022-11-21T17:46:26.870Z,20.25
2022-11-21T17:48:58.265Z,19.75
2022-11-21T17:51:28.886Z,19.17
2022-11-21T17:53:57.106Z,18.85
2022-11-21T17:56:27.074Z,15.77
2022-11-21T17:58:56.707Z,17.48
2022-11-21T18:01:24.799Z,17.85
2022-11-21T18:03:56.391Z,20.13
2022-11-21T18:06:24.803Z,18.75
2022-11-21T18:08:52.752Z,19.85
2022-11-21T18:11:22.239Z,18.60
2022-11-21T18:13:50.623Z,18.13
2022-11-21T18:16:21.827Z,17.58
2022-11-21T18:18:50.723Z,16.15
2022-11-21T18:21:20.505Z,18.05
2022-11-21T18:23:48.977Z,20.58
2022-11-21T18:26:20.483Z,19.27
2022-11-21T18:29:01.842Z,18.50
2022-11-21T18:31:39.474Z,19.33
2022-11-21T18:34:07.802Z,17.77
2022-11-21T18:36:36.102Z,19.98
2022-11-21T18:39:10.645Z,17.85
2022-11-21T18:41:41.510Z,20.45
2022-11-21T18:44:09.788Z,22.75
2022-11-21T18:46:39.549Z,22.00
2022-11-21T18:49:08.457Z,19.75
2022-11-21T18:51:38.247Z,20.58
2022-11-21T18:54:09.603Z,19.67
2022-11-21T18:56:39.007Z,21.08
2022-11-21T18:59:07.373Z,18.27
2022-11-21T19:01:36.923Z,18.50
2022-11-21T19:04:06.524Z,17.20
2022-11-21T19:06:34.500Z,18.38
2022-11-21T19:09:02.419Z,19.45
2022-11-21T19:11:31.058Z,20.38
2022-11-21T19:14:00.424Z,17.30
2022-11-21T19:16:31.028Z,17.60
2022-11-21T19:21:51.835Z,16.75
2022-11-21T19:24:20.502Z,16.65
2022-11-21T19:26:50.419Z,17.40
2022-11-21T19:29:19.397Z,18.85
2022-11-21T19:31:47.870Z,17.02
2022-11-21T19:34:16.911Z,21.02
2022-11-21T19:36:46.022Z,18.17
2022-11-21T19:39:17.573Z,16.75
2022-11-21T19:41:45.888Z,16.45
2022-11-21T19:44:14.337Z,17.83
2022-11-21T19:46:42.665Z,17.45
2022-11-21T19:49:13.317Z,18.95
2022-11-21T19:51:43.072Z,18.65
2022-11-21T19:54:13.213Z,20.50
2022-11-21T19:56:43.192Z,19.67
2022-11-21T19:59:13.568Z,18.48
2022-11-21T20:01:41.934Z,18.13
2022-11-21T20:04:11.642Z,17.10
2022-11-21T20:06:41.442Z,17.73
2022-11-21T20:09:11.693Z,18.40
2022-11-21T20:11:42.450Z,16.25
2022-11-21T20:14:16.305Z,15.73
2022-11-21T20:16:49.710Z,16.38
2022-11-21T20:19:19.820Z,16.10
2022-11-21T20:21:48.412Z,14.18
2022-11-21T20:24:17.122Z,16.90
2022-11-21T20:26:47.071Z,16.20
2022-11-21T20:29:15.598Z,14.85
2022-11-21T20:31:44.365Z,13.75
2022-11-21T20:34:13.756Z,13.30
2022-11-21T20:36:42.515Z,13.75
2022-11-21T20:39:14.743Z,12.05
2022-11-21T20:41:43.116Z,12.32
2022-11-21T20:45:07.285Z,12.32
2022-11-21T20:47:02.892Z,12.52
2022-11-21T20:49:31.210Z,13.13
2022-11-21T20:54:47.252Z,15.25
2022-11-21T20:57:15.776Z,13.50
2022-11-21T20:59:45.316Z,14.48
2022-11-21T21:02:14.335Z,14.27
2022-11-21T21:04:42.669Z,15.05
2022-11-21T21:07:10.875Z,15.32
2022-11-21T21:09:38.994Z,15.18
2022-11-21T21:12:07.176Z,15.90
2022-11-21T21:14:35.093Z,16.73
2022-11-21T21:17:04.391Z,18.60
2022-11-21T21:19:32.560Z,16.85
2022-11-21T21:22:00.673Z,14.88
2022-11-21T21:24:28.727Z,14.75
2022-11-21T21:26:56.694Z,13.18
2022-11-21T21:29:24.616Z,14.80
2022-11-21T21:31:53.057Z,14.07
2022-11-21T21:34:23.501Z,15.75
2022-11-21T21:36:51.773Z,13.20
2022-11-21T21:39:19.703Z,13.52
2022-11-21T21:41:48.138Z,12.20
2022-11-21T21:44:16.702Z,12.43
2022-11-21T21:46:45.080Z,12.38
2022-11-21T21:49:13.153Z,13.02
2022-11-21T21:51:42.497Z,11.95
2022-11-21T21:54:18.000Z,13.52
2022-11-21T21:56:46.909Z,12.98
2022-11-21T21:59:15.434Z,12.25
2022-11-21T22:01:43.897Z,12.27
2022-11-21T22:04:13.355Z,13.95
2022-11-21T22:06:42.742Z,12.82
2022-11-21T22:09:10.757Z,12.00
2022-11-21T22:11:39.484Z,12.57
2022-11-21T22:14:11.296Z,11.82
2022-11-21T22:16:39.472Z,11.10
2022-11-21T22:19:07.564Z,12.57
2022-11-21T22:21:36.837Z,11.85
2022-11-21T22:24:27.700Z,12.43
2022-11-21T22:26:55.875Z,15.00
2022-11-21T22:29:23.832Z,13.27
2022-11-21T22:31:51.867Z,12.73
2022-11-21T22:34:19.768Z,11.38
2022-11-21T22:36:47.744Z,11.95
2022-11-21T22:39:17.956Z,12.43
2022-11-21T22:41:46.030Z,11.43
2022-11-21T22:44:14.063Z,13.35
2022-11-21T22:46:41.995Z,12.00
2022-11-21T22:49:09.872Z,12.70
2022-11-21T22:51:37.843Z,12.82
2022-11-21T22:54:05.910Z,13.25
2022-11-21T22:56:35.205Z,13.48
2022-11-21T22:59:03.148Z,13.57
2022-11-21T23:01:32.949Z,14.82
2022-11-21T23:04:01.361Z,14.73
2022-11-21T23:06:29.339Z,14.70
2022-11-21T23:08:58.044Z,14.27
2022-11-21T23:11:27.742Z,13.73
2022-11-21T23:13:57.669Z,12.95
2022-11-21T23:16:26.586Z,12.77
2022-11-21T23:18:55.043Z,14.27
2022-11-21T23:21:23.421Z,11.75
2022-11-21T23:23:51.318Z,13.48
2022-11-21T23:26:20.265Z,11.82
2022-11-21T23:28:48.181Z,11.68
2022-11-21T23:31:17.440Z,12.45
2022-11-21T23:33:45.406Z,12.18
2022-11-21T23:36:13.322Z,12.25
2022-11-21T23:38:41.268Z,12.90
2022-11-21T23:41:09.270Z,12.65
2022-11-21T23:43:37.243Z,12.77
2022-11-21T23:46:05.475Z,13.98
2022-11-21T23:48:34.819Z,14.48
2022-11-21T23:51:02.724Z,12.60
2022-11-21T23:53:30.645Z,13.52
2022-11-21T23:55:58.694Z,12.25
2022-11-21T23:58:26.625Z,11.55
